createdAt,value
2022-07-26T00:01:15.327Z,97789.20
2022-07-26T00:03:42.241Z,97790.30
2022-07-26T00:06:09.376Z,97781.26
2022-07-26T00:08:36.283Z,97778.73
2022-07-26T00:11:07.061Z,97779.91
2022-07-26T00:13:35.267Z,97779.05
2022-07-26T00:16:03.606Z,97783.08
2022-07-26T00:18:30.390Z,97785.20
2022-07-26T00:20:57.447Z,97788.02
2022-07-26T00:23:24.861Z,97786.33
2022-07-26T00:25:51.393Z,97785.03
2022-07-26T00:28:17.946Z,97788.41
2022-07-26T00:30:44.698Z,97784.86
2022-07-26T00:33:11.310Z,97783.19
2022-07-26T00:35:38.014Z,97782.65
2022-07-26T00:38:04.690Z,97779.81
2022-07-26T00:40:31.589Z,97781.26
2022-07-26T00:42:58.214Z,97777.02
2022-07-26T00:45:25.131Z,97775.23
2022-07-26T00:47:51.691Z,97772.61
2022-07-26T00:50:19.843Z,97770.03
2022-07-26T00:52:48.638Z,97764.50
2022-07-26T00:55:16.393Z,97764.48
2022-07-26T00:57:44.174Z,97764.95
2022-07-26T01:00:16.076Z,97768.49
2022-07-26T01:02:43.420Z,97768.77
2022-07-26T01:05:10.971Z,97771.48
2022-07-26T01:07:39.048Z,97772.30
2022-07-26T01:10:09.625Z,97768.80
2022-07-26T01:12:36.673Z,97773.83
2022-07-26T01:15:03.629Z,97774.83
2022-07-26T01:17:30.285Z,97773.62
2022-07-26T01:19:56.983Z,97763.20
2022-07-26T01:22:23.574Z,97757.63
2022-07-26T01:24:50.172Z,97762.42
2022-07-26T01:27:16.868Z,97764.90
2022-07-26T01:29:43.734Z,97760.14
2022-07-26T01:32:10.407Z,97758.54
2022-07-26T01:34:37.272Z,97761.92
2022-07-26T01:37:04.001Z,97755.83
2022-07-26T01:39:30.648Z,97750.05
2022-07-26T01:41:57.493Z,97747.41
2022-07-26T01:44:25.058Z,97745.96
2022-07-26T01:46:51.702Z,97743.14
2022-07-26T01:49:18.309Z,97744.92
2022-07-26T01:51:45.195Z,97741.72
2022-07-26T01:54:12.507Z,97743.72
2022-07-26T01:56:39.319Z,97743.48
2022-07-26T01:59:06.139Z,97742.27
2022-07-26T02:01:38.728Z,97736.46
2022-07-26T02:04:09.152Z,97734.52
2022-07-26T02:06:36.106Z,97730.86
2022-07-26T02:09:05.279Z,97726.47
2022-07-26T02:11:34.415Z,97725.95
2022-07-26T02:14:01.064Z,97726.77
2022-07-26T02:16:27.728Z,97727.13
2022-07-26T02:18:54.479Z,97723.51
2022-07-26T02:21:21.132Z,97727.59
2022-07-26T02:23:47.838Z,97726.59
2022-07-26T02:26:14.485Z,97723.45
2022-07-26T02:28:41.430Z,97721.15
2022-07-26T02:31:08.041Z,97715.92
2022-07-26T02:33:35.005Z,97717.55
2022-07-26T02:36:01.665Z,97710.63
2022-07-26T02:38:28.304Z,97710.41
2022-07-26T02:40:55.057Z,97710.64
2022-07-26T02:43:22.164Z,97711.01
2022-07-26T02:46:01.138Z,97712.79
2022-07-26T02:48:28.952Z,97711.46
2022-07-26T02:50:55.771Z,97712.13
2022-07-26T02:53:22.340Z,97707.23
2022-07-26T02:55:49.052Z,97706.53
2022-07-26T02:58:15.629Z,97707.27
2022-07-26T03:00:42.174Z,97699.86
2022-07-26T03:03:08.970Z,97697.66
2022-07-26T03:05:35.765Z,97701.08
2022-07-26T03:08:02.503Z,97705.56
2022-07-26T03:10:29.524Z,97696.69
2022-07-26T03:12:56.999Z,97693.63
2022-07-26T03:15:23.711Z,97696.98
2022-07-26T03:17:50.795Z,97692.80
2022-07-26T03:20:17.521Z,97694.82
2022-07-26T03:22:44.284Z,97703.28
2022-07-26T03:25:11.036Z,97702.13
2022-07-26T03:27:37.654Z,97699.16
2022-07-26T03:30:06.294Z,97691.48
2022-07-26T03:32:33.137Z,97689.84
2022-07-26T03:34:59.949Z,97685.20
2022-07-26T03:37:26.802Z,97680.14
2022-07-26T03:40:14.861Z,97676.33
2022-07-26T03:42:41.595Z,97672.61
2022-07-26T03:45:09.494Z,97668.67
2022-07-26T03:47:36.519Z,97664.90
2022-07-26T03:50:07.717Z,97659.77
2022-07-26T03:52:34.202Z,97652.81
2022-07-26T03:55:00.911Z,97652.17
2022-07-26T03:57:28.212Z,97649.98
2022-07-26T03:59:55.509Z,97649.27
2022-07-26T04:02:22.468Z,97647.41
2022-07-26T04:04:49.391Z,97646.26
2022-07-26T04:07:16.213Z,97644.20
2022-07-26T04:09:43.056Z,97643.20
2022-07-26T04:12:09.802Z,97639.22
2022-07-26T04:14:36.407Z,97635.21
2022-07-26T04:17:03.191Z,97634.73
2022-07-26T04:19:29.844Z,97630.77
2022-07-26T04:21:56.374Z,97631.98
2022-07-26T04:24:25.559Z,97631.55
2022-07-26T04:26:52.677Z,97627.80
2022-07-26T04:29:19.188Z,97621.28
2022-07-26T04:31:45.837Z,97615.55
2022-07-26T04:34:12.460Z,97618.42
2022-07-26T04:36:39.313Z,97618.58
2022-07-26T04:39:06.056Z,97612.05
2022-07-26T04:41:32.826Z,97611.34
2022-07-26T04:43:59.446Z,97606.02
2022-07-26T04:46:26.243Z,97608.21
2022-07-26T04:48:52.968Z,97606.22
2022-07-26T04:51:19.991Z,97601.11
2022-07-26T04:53:46.634Z,97607.65
2022-07-26T04:56:13.202Z,97608.50
2022-07-26T04:58:39.841Z,97608.34
2022-07-26T05:01:10.973Z,97611.56
2022-07-26T05:03:39.158Z,97612.58
2022-07-26T05:06:06.105Z,97608.23
2022-07-26T05:08:33.223Z,97611.10
2022-07-26T05:10:59.893Z,97615.39
2022-07-26T05:13:30.100Z,97611.78
2022-07-26T05:15:58.142Z,97620.67
2022-07-26T05:18:25.183Z,97619.92
2022-07-26T05:20:52.617Z,97615.83
2022-07-26T05:23:20.702Z,97607.91
2022-07-26T05:25:47.751Z,97617.63
2022-07-26T05:28:15.023Z,97612.86
2022-07-26T05:30:41.732Z,97617.34
2022-07-26T05:33:08.338Z,97611.95
2022-07-26T05:35:35.221Z,97618.02
2022-07-26T05:38:02.291Z,97619.25
2022-07-26T05:40:29.330Z,97620.46
2022-07-26T05:42:55.963Z,97616.14
2022-07-26T05:45:23.031Z,97618.23
2022-07-26T05:47:51.346Z,97612.23
2022-07-26T05:50:18.119Z,97610.52
2022-07-26T05:52:44.902Z,97609.05
2022-07-26T05:55:12.216Z,97602.73
2022-07-26T05:57:39.105Z,97605.84
2022-07-26T06:00:06.902Z,97600.98
2022-07-26T06:02:34.571Z,97597.05
2022-07-26T06:05:01.237Z,97600.58
2022-07-26T06:07:28.035Z,97594.82
2022-07-26T06:09:54.778Z,97597.08
2022-07-26T06:12:21.335Z,97598.69
2022-07-26T06:14:48.112Z,97600.73
2022-07-26T06:17:14.728Z,97602.18
2022-07-26T06:19:47.113Z,97606.20
2022-07-26T06:22:14.543Z,97610.23
2022-07-26T06:24:41.201Z,97609.27
2022-07-26T06:27:07.928Z,97604.86
2022-07-26T06:29:34.581Z,97597.13
2022-07-26T06:32:01.198Z,97598.77
2022-07-26T06:34:28.231Z,97590.27
2022-07-26T06:36:55.122Z,97595.27
2022-07-26T06:39:21.784Z,97596.05
2022-07-26T06:41:48.977Z,97592.54
2022-07-26T06:44:15.752Z,97590.85
2022-07-26T06:46:42.348Z,97590.92
2022-07-26T06:49:09.112Z,97592.25
2022-07-26T06:51:35.912Z,97590.51
2022-07-26T06:54:02.657Z,97592.25
2022-07-26T06:56:29.197Z,97589.73
2022-07-26T06:58:55.839Z,97590.67
2022-07-26T07:01:51.530Z,97590.77
2022-07-26T07:04:09.370Z,97587.37
2022-07-26T07:06:36.407Z,97586.34
2022-07-26T07:09:03.190Z,97584.20
2022-07-26T07:11:29.833Z,97584.39
2022-07-26T07:13:56.387Z,97582.48
2022-07-26T07:16:23.161Z,97574.91
2022-07-26T07:18:50.262Z,97577.00
2022-07-26T07:21:17.206Z,97575.66
2022-07-26T07:23:43.864Z,97573.30
2022-07-26T07:26:10.509Z,97571.67
2022-07-26T07:28:37.089Z,97571.64
2022-07-26T07:31:04.576Z,97573.50
2022-07-26T07:33:32.102Z,97577.19
2022-07-26T07:36:03.829Z,97580.75
2022-07-26T07:38:30.476Z,97586.78
2022-07-26T07:40:57.550Z,97591.24
2022-07-26T07:43:24.117Z,97595.25
2022-07-26T07:45:51.007Z,97602.89
2022-07-26T07:48:18.200Z,97604.00
2022-07-26T07:50:45.320Z,97602.68
2022-07-26T07:53:11.890Z,97592.88
2022-07-26T07:55:41.070Z,97588.95
2022-07-26T07:58:10.982Z,97594.41
2022-07-26T08:00:37.857Z,97599.88
2022-07-26T08:03:05.489Z,97607.16
2022-07-26T08:05:32.106Z,97604.77
2022-07-26T08:07:58.806Z,97599.14
2022-07-26T08:10:25.728Z,97600.70
2022-07-26T08:12:52.347Z,97603.38
2022-07-26T08:15:19.282Z,97604.58
2022-07-26T08:17:51.098Z,97610.80
2022-07-26T08:20:20.995Z,97611.88
2022-07-26T08:22:50.500Z,97611.59
2022-07-26T08:25:17.485Z,97615.98
2022-07-26T08:27:51.088Z,97621.63
2022-07-26T08:30:30.089Z,97625.18
2022-07-26T08:32:56.834Z,97621.66
2022-07-26T08:35:23.700Z,97623.52
2022-07-26T08:37:50.739Z,97627.64
2022-07-26T08:40:18.090Z,97630.01
2022-07-26T08:42:52.835Z,97633.10
2022-07-26T08:45:30.941Z,97628.54
2022-07-26T08:50:45.856Z,97627.50
2022-07-26T08:53:13.385Z,97632.11
2022-07-26T08:56:05.469Z,97633.27
2022-07-26T08:58:26.954Z,97630.80
2022-07-26T09:01:05.337Z,97632.10
2022-07-26T09:03:32.589Z,97636.48
2022-07-26T09:06:12.088Z,97638.83
2022-07-26T09:08:38.668Z,97643.95
2022-07-26T09:11:38.071Z,97648.77
2022-07-26T09:14:05.651Z,97642.35
2022-07-26T09:16:36.226Z,97646.29
2022-07-26T09:19:20.797Z,97648.57
2022-07-26T09:21:47.908Z,97653.92
2022-07-26T09:24:35.944Z,97652.14
2022-07-26T09:27:05.267Z,97660.27
2022-07-26T09:29:43.091Z,97658.46
2022-07-26T09:32:12.956Z,97671.01
2022-07-26T09:34:52.064Z,97670.42
2022-07-26T09:37:33.165Z,97674.38
2022-07-26T09:40:01.528Z,97676.16
2022-07-26T09:42:29.719Z,97681.23
2022-07-26T09:44:58.174Z,97683.95
2022-07-26T09:47:41.100Z,97687.59
2022-07-26T09:50:23.596Z,97695.69
2022-07-26T09:53:12.734Z,97697.64
2022-07-26T09:55:45.565Z,97696.70
2022-07-26T09:58:17.527Z,97700.08
2022-07-26T10:00:44.785Z,97702.98
2022-07-26T10:03:12.244Z,97706.52
2022-07-26T10:05:39.911Z,97711.65
2022-07-26T10:08:07.788Z,97722.86
2022-07-26T10:10:49.890Z,97725.20
2022-07-26T10:13:17.585Z,97723.67
2022-07-26T10:15:50.339Z,97730.34
2022-07-26T10:18:39.222Z,97730.80
2022-07-26T10:21:20.498Z,97734.14
2022-07-26T10:24:03.741Z,97736.02
2022-07-26T10:26:33.423Z,97734.22
2022-07-26T10:29:20.574Z,97742.13
2022-07-26T10:32:15.246Z,97738.21
2022-07-26T10:34:42.217Z,97745.16
2022-07-26T10:37:12.044Z,97754.89
2022-07-26T10:39:39.950Z,97751.98
2022-07-26T10:42:11.126Z,97750.47
2022-07-26T10:44:40.334Z,97751.57
2022-07-26T10:47:06.963Z,97753.35
2022-07-26T10:49:58.193Z,97755.39
2022-07-26T10:52:29.976Z,97769.48
2022-07-26T10:54:56.486Z,97779.39
2022-07-26T10:57:37.796Z,97783.14
2022-07-26T11:00:09.974Z,97780.99
2022-07-26T11:02:36.836Z,97790.77
2022-07-26T11:05:07.371Z,97786.84
2022-07-26T11:07:47.279Z,97793.03
2022-07-26T11:10:14.165Z,97799.73
2022-07-26T11:12:41.077Z,97805.06
2022-07-26T11:15:18.779Z,97816.52
2022-07-26T11:17:45.351Z,97832.09
2022-07-26T11:20:29.253Z,97841.98
2022-07-26T11:22:56.835Z,97840.60
2022-07-26T11:25:23.575Z,97837.52
2022-07-26T11:28:07.155Z,97835.61
2022-07-26T11:30:35.088Z,97841.42
2022-07-26T11:33:01.733Z,97856.36
2022-07-26T11:35:29.778Z,97854.22
2022-07-26T11:38:07.851Z,97867.89
2022-07-26T11:40:45.643Z,97862.35
2022-07-26T11:43:12.277Z,97868.71
2022-07-26T11:45:39.405Z,97876.08
2022-07-26T11:48:07.813Z,97878.69
2022-07-26T11:50:34.438Z,97877.66
2022-07-26T11:53:00.987Z,97879.06
2022-07-26T11:55:31.416Z,97878.11
2022-07-26T11:58:05.225Z,97882.66
2022-07-26T12:00:32.450Z,97879.71
2022-07-26T12:02:59.206Z,97882.45
2022-07-26T12:05:27.629Z,97885.48
2022-07-26T12:07:55.272Z,97882.67
2022-07-26T12:10:22.404Z,97883.35
2022-07-26T12:12:49.173Z,97881.82
2022-07-26T12:15:15.989Z,97877.36
2022-07-26T12:17:59.643Z,97876.45
2022-07-26T12:20:26.204Z,97877.83
2022-07-26T12:22:57.819Z,97877.73
2022-07-26T12:25:26.105Z,97879.36
2022-07-26T12:27:52.850Z,97873.95
2022-07-26T12:30:20.415Z,97865.50
2022-07-26T12:32:48.385Z,97862.36
2022-07-26T12:35:17.593Z,97862.44
2022-07-26T12:37:47.097Z,97867.11
2022-07-26T12:40:28.279Z,97868.46
2022-07-26T12:43:01.310Z,97864.88
2022-07-26T12:45:34.819Z,97866.08
2022-07-26T12:48:03.565Z,97866.47
2022-07-26T12:50:31.001Z,97863.54
2022-07-26T12:53:04.516Z,97872.77
2022-07-26T12:55:31.749Z,97872.94
2022-07-26T12:57:58.648Z,97874.08
2022-07-26T13:00:25.500Z,97870.98
2022-07-26T13:02:52.679Z,97869.09
2022-07-26T13:05:19.404Z,97869.59
2022-07-26T13:07:46.317Z,97863.52
2022-07-26T13:12:59.792Z,97864.95
2022-07-26T13:15:37.387Z,97868.07
2022-07-26T13:18:08.510Z,97873.38
2022-07-26T13:20:38.655Z,97869.39
2022-07-26T13:23:06.869Z,97872.79
2022-07-26T13:25:39.848Z,97874.55
2022-07-26T13:28:08.380Z,97874.27
2022-07-26T13:30:37.328Z,97871.36
2022-07-26T13:33:04.581Z,97870.16
2022-07-26T13:35:32.876Z,97871.63
2022-07-26T13:37:59.475Z,97871.20
2022-07-26T13:40:31.462Z,97879.23
2022-07-26T13:42:59.069Z,97888.46
2022-07-26T13:45:28.880Z,97893.17
2022-07-26T13:47:57.198Z,97897.91
2022-07-26T13:50:25.730Z,97897.42
2022-07-26T13:52:52.487Z,97895.85
2022-07-26T13:55:19.298Z,97895.80
2022-07-26T13:57:53.064Z,97897.60
2022-07-26T14:00:28.809Z,97894.21
2022-07-26T14:02:57.796Z,97892.63
2022-07-26T14:05:25.685Z,97897.80
2022-07-26T14:07:52.695Z,97896.58
2022-07-26T14:10:20.878Z,97902.55
2022-07-26T14:12:48.853Z,97902.29
2022-07-26T14:15:21.607Z,97906.08
2022-07-26T14:17:51.183Z,97909.50
2022-07-26T14:20:18.239Z,97918.83
2022-07-26T14:22:45.355Z,97917.77
2022-07-26T14:25:12.754Z,97915.01
2022-07-26T14:27:39.608Z,97920.75
2022-07-26T14:30:07.160Z,97920.20
2022-07-26T14:32:33.819Z,97916.39
2022-07-26T14:35:00.502Z,97916.16
2022-07-26T14:37:43.117Z,97914.18
2022-07-26T14:40:15.702Z,97920.44
2022-07-26T14:42:43.466Z,97924.11
2022-07-26T14:45:11.389Z,97924.53
2022-07-26T14:47:38.431Z,97923.17
2022-07-26T14:50:07.733Z,97923.69
2022-07-26T14:52:55.241Z,97923.88
2022-07-26T14:55:25.350Z,97929.54
2022-07-26T14:57:52.618Z,97929.91
2022-07-26T15:00:19.705Z,97932.92
2022-07-26T15:02:48.250Z,97934.17
2022-07-26T15:05:17.057Z,97933.53
2022-07-26T15:07:44.403Z,97936.20
2022-07-26T15:10:12.956Z,97937.83
2022-07-26T15:12:40.159Z,97939.55
2022-07-26T15:15:08.443Z,97937.89
2022-07-26T15:17:35.275Z,97936.98
2022-07-26T15:20:02.736Z,97939.17
2022-07-26T15:22:29.588Z,97940.83
2022-07-26T15:24:56.343Z,97940.51
2022-07-26T15:27:23.018Z,97938.21
2022-07-26T15:29:49.619Z,97941.84
2022-07-26T15:32:16.332Z,97949.73
2022-07-26T15:34:43.111Z,97957.92
2022-07-26T15:37:09.693Z,97963.15
2022-07-26T15:39:36.196Z,97968.79
2022-07-26T15:42:07.360Z,97968.20
2022-07-26T15:44:34.811Z,97971.27
2022-07-26T15:47:01.866Z,97966.05
2022-07-26T15:49:30.697Z,97972.59
2022-07-26T15:51:57.618Z,97976.82
2022-07-26T15:54:24.287Z,97971.02
2022-07-26T15:56:50.969Z,97969.45
2022-07-26T15:59:18.050Z,97964.04
2022-07-26T16:01:44.965Z,97968.80
2022-07-26T16:04:12.006Z,97972.67
2022-07-26T16:06:39.444Z,97982.86
2022-07-26T16:09:16.711Z,97987.15
2022-07-26T16:11:44.505Z,97988.18
2022-07-26T16:14:11.941Z,97993.79
2022-07-26T16:16:38.944Z,98001.15
2022-07-26T16:19:05.846Z,98006.70
2022-07-26T16:21:32.693Z,98014.50
2022-07-26T16:24:04.401Z,98015.75
2022-07-26T16:26:33.763Z,98032.91
2022-07-26T16:29:00.755Z,98036.05
2022-07-26T16:31:27.815Z,98041.75
2022-07-26T16:33:54.813Z,98039.55
2022-07-26T16:36:21.360Z,98043.37
2022-07-26T16:38:48.130Z,98043.57
2022-07-26T16:41:14.714Z,98047.27
2022-07-26T16:43:41.590Z,98050.53
2022-07-26T16:46:08.441Z,98054.11
2022-07-26T16:48:35.069Z,98057.41
2022-07-26T16:51:02.195Z,98061.21
2022-07-26T16:53:28.991Z,98062.27
2022-07-26T16:55:55.663Z,98066.38
2022-07-26T16:58:22.671Z,98063.68
2022-07-26T17:00:49.277Z,98061.17
2022-07-26T17:03:16.284Z,98063.36
2022-07-26T17:05:43.841Z,98065.13
2022-07-26T17:08:10.901Z,98066.58
2022-07-26T17:10:37.976Z,98070.90
2022-07-26T17:13:04.921Z,98066.79
2022-07-26T17:15:31.751Z,98065.15
2022-07-26T17:17:58.603Z,98064.24
2022-07-26T17:20:26.369Z,98066.85
2022-07-26T17:22:53.733Z,98060.77
2022-07-26T17:25:20.582Z,98058.60
2022-07-26T17:27:47.161Z,98055.77
2022-07-26T17:30:14.378Z,98056.96
2022-07-26T17:32:41.171Z,98060.96
2022-07-26T17:35:09.359Z,98057.21
2022-07-26T17:37:36.058Z,98058.08
2022-07-26T17:40:05.253Z,98056.20
2022-07-26T17:42:34.969Z,98055.04
2022-07-26T17:45:01.914Z,98059.04
2022-07-26T17:47:30.594Z,98056.20
2022-07-26T17:50:34.050Z,98051.79
2022-07-26T17:52:50.303Z,98053.52
2022-07-26T17:55:17.721Z,98050.30
2022-07-26T17:57:44.447Z,98049.79
2022-07-26T18:00:11.782Z,98046.73
2022-07-26T18:02:38.321Z,98048.35
2022-07-26T18:05:05.486Z,98045.40
2022-07-26T18:07:32.249Z,98044.17
2022-07-26T18:09:58.861Z,98037.23
2022-07-26T18:12:25.428Z,98036.05
2022-07-26T18:14:52.145Z,98028.89
2022-07-26T18:17:18.790Z,98027.52
2022-07-26T18:19:45.312Z,98021.42
2022-07-26T18:22:11.974Z,98022.45
2022-07-26T18:24:38.468Z,98023.70
2022-07-26T18:27:05.055Z,98030.95
2022-07-26T18:29:32.111Z,98031.11
2022-07-26T18:31:59.069Z,98032.20
2022-07-26T18:34:26.426Z,98043.92
2022-07-26T18:36:53.219Z,98043.02
2022-07-26T18:39:19.895Z,98049.34
2022-07-26T18:41:46.503Z,98047.91
2022-07-26T18:44:13.239Z,98044.91
2022-07-26T18:46:39.980Z,98041.88
2022-07-26T18:49:07.147Z,98035.64
2022-07-26T18:51:33.960Z,98038.67
2022-07-26T18:54:00.822Z,98040.62
2022-07-26T18:56:27.557Z,98045.79
2022-07-26T18:58:54.308Z,98051.00
2022-07-26T19:01:20.983Z,98057.98
2022-07-26T19:03:47.993Z,98062.15
2022-07-26T19:06:15.056Z,98063.73
2022-07-26T19:08:41.702Z,98061.23
2022-07-26T19:11:08.265Z,98063.76
2022-07-26T19:13:34.866Z,98066.10
2022-07-26T19:16:01.678Z,98068.67
2022-07-26T19:18:28.591Z,98069.77
2022-07-26T19:20:55.539Z,98072.59
2022-07-26T19:23:22.103Z,98072.59
2022-07-26T19:25:48.795Z,98074.02
2022-07-26T19:28:15.468Z,98074.61
2022-07-26T19:30:42.301Z,98072.67
2022-07-26T19:33:08.958Z,98068.66
2022-07-26T19:35:35.490Z,98065.42
2022-07-26T19:38:02.214Z,98062.23
2022-07-26T19:40:28.867Z,98060.80
2022-07-26T19:42:55.440Z,98058.02
2022-07-26T19:45:22.211Z,98053.05
2022-07-26T19:47:49.736Z,98048.21
2022-07-26T19:50:16.532Z,98046.53
2022-07-26T19:52:43.059Z,98055.12
2022-07-26T19:55:10.028Z,98049.42
2022-07-26T19:57:37.441Z,98044.90
2022-07-26T20:00:08.495Z,98045.80
2022-07-26T20:02:35.724Z,98046.80
2022-07-26T20:05:05.178Z,98049.94
2022-07-26T20:07:31.823Z,98043.09
2022-07-26T20:09:58.487Z,98043.07
2022-07-26T20:12:25.292Z,98043.14
2022-07-26T20:14:51.890Z,98047.31
2022-07-26T20:17:18.589Z,98048.17
2022-07-26T20:19:45.329Z,98045.16
2022-07-26T20:22:12.060Z,98045.67
2022-07-26T20:24:38.583Z,98047.88
2022-07-26T20:27:06.898Z,98046.55
2022-07-26T20:29:34.002Z,98045.16
2022-07-26T20:32:00.784Z,98044.30
2022-07-26T20:34:27.816Z,98046.34
2022-07-26T20:36:54.417Z,98047.46
2022-07-26T20:39:21.168Z,98051.22
2022-07-26T20:41:47.976Z,98049.25
2022-07-26T20:44:14.511Z,98048.04
2022-07-26T20:46:41.218Z,98051.14
2022-07-26T20:49:08.875Z,98046.27
2022-07-26T20:51:36.585Z,98041.21
2022-07-26T20:54:03.745Z,98042.39
2022-07-26T20:56:30.381Z,98048.37
2022-07-26T20:58:57.161Z,98051.11
2022-07-26T21:01:24.042Z,98054.36
2022-07-26T21:03:50.980Z,98060.71
2022-07-26T21:06:17.675Z,98057.10
2022-07-26T21:08:44.237Z,98051.20
2022-07-26T21:11:11.059Z,98053.73
2022-07-26T21:13:37.608Z,98057.05
2022-07-26T21:16:04.479Z,98051.62
2022-07-26T21:18:36.404Z,98054.42
2022-07-26T21:21:03.161Z,98053.05
2022-07-26T21:23:30.008Z,98054.30
2022-07-26T21:26:00.630Z,98054.96
2022-07-26T21:28:28.282Z,98056.92
2022-07-26T21:30:55.668Z,98064.83
2022-07-26T21:33:22.308Z,98063.20
2022-07-26T21:35:48.871Z,98067.88
2022-07-26T21:38:15.388Z,98070.73
2022-07-26T21:40:41.931Z,98067.34
2022-07-26T21:43:08.679Z,98068.79
2022-07-26T21:45:35.285Z,98068.03
2022-07-26T21:48:02.116Z,98068.38
2022-07-26T21:50:28.809Z,98066.62
2022-07-26T21:52:55.454Z,98065.89
2022-07-26T21:55:22.300Z,98067.15
2022-07-26T21:57:49.044Z,98068.95
2022-07-26T22:00:16.934Z,98069.89
2022-07-26T22:02:44.149Z,98073.05
2022-07-26T22:05:11.144Z,98076.98
2022-07-26T22:07:37.876Z,98079.79
2022-07-26T22:10:05.095Z,98084.02
2022-07-26T22:12:31.665Z,98084.75
2022-07-26T22:14:58.201Z,98089.56
2022-07-26T22:17:25.165Z,98091.31
2022-07-26T22:19:51.810Z,98088.41
2022-07-26T22:22:18.447Z,98089.84
2022-07-26T22:24:45.301Z,98092.27
2022-07-26T22:27:11.949Z,98095.62
2022-07-26T22:29:40.172Z,98101.98
2022-07-26T22:32:07.041Z,98099.95
2022-07-26T22:34:33.967Z,98099.14
2022-07-26T22:37:00.767Z,98102.21
2022-07-26T22:39:27.508Z,98101.59
2022-07-26T22:42:14.227Z,98107.57
2022-07-26T22:44:40.928Z,98108.36
2022-07-26T22:47:07.606Z,98107.52
2022-07-26T22:49:34.347Z,98107.95
2022-07-26T22:52:01.064Z,98104.48
2022-07-26T22:54:27.746Z,98104.79
2022-07-26T22:56:54.901Z,98104.84
2022-07-26T22:59:21.777Z,98108.14
2022-07-26T23:01:48.424Z,98112.34
2022-07-26T23:04:15.235Z,98108.04
2022-07-26T23:06:43.118Z,98106.42
2022-07-26T23:09:11.658Z,98106.34
2022-07-26T23:11:38.898Z,98106.71
2022-07-26T23:14:05.538Z,98105.82
2022-07-26T23:16:32.217Z,98106.09
2022-07-26T23:18:59.044Z,98106.82
2022-07-26T23:21:26.055Z,98109.48
2022-07-26T23:23:52.550Z,98111.06
2022-07-26T23:26:19.557Z,98110.56
2022-07-26T23:28:46.488Z,98110.32
2022-07-26T23:31:13.227Z,98109.92
2022-07-26T23:33:52.292Z,98102.34
2022-07-26T23:36:28.873Z,98103.70
2022-07-26T23:38:57.409Z,98107.44
2022-07-26T23:41:24.585Z,98111.13
2022-07-26T23:43:52.461Z,98118.08
2022-07-26T23:46:19.060Z,98118.24
2022-07-26T23:48:46.604Z,98118.20
2022-07-26T23:51:13.787Z,98116.59
2022-07-26T23:53:40.339Z,98115.16
2022-07-26T23:56:06.936Z,98115.53
2022-07-26T23:58:33.487Z,98120.95
